sensor_id;sensor_type;location;lat;lon;timestamp;P1;durP1;ratioP1;P2;durP2;ratioP2
33022;SDS011;19390;51.460;5.710;2023-03-30T00:00:52;6.10;;;2.10;;
33022;SDS011;19390;51.460;5.710;2023-03-30T00:03:18;7.40;;;2.45;;
33022;SDS011;19390;51.460;5.710;2023-03-30T00:05:46;3.40;;;1.83;;
33022;SDS011;19390;51.460;5.710;2023-03-30T00:08:14;8.40;;;2.22;;
33022;SDS011;19390;51.460;5.710;2023-03-30T00:10:42;8.10;;;2.05;;
33022;SDS011;19390;51.460;5.710;2023-03-30T00:13:12;6.68;;;2.03;;
33022;SDS011;19390;51.460;5.710;2023-03-30T00:15:38;5.38;;;2.33;;
33022;SDS011;19390;51.460;5.710;2023-03-30T00:18:04;4.53;;;2.30;;
33022;SDS011;19390;51.460;5.710;2023-03-30T00:20:29;8.27;;;2.30;;
33022;SDS011;19390;51.460;5.710;2023-03-30T00:22:58;6.28;;;2.10;;
33022;SDS011;19390;51.460;5.710;2023-03-30T00:25:24;7.57;;;2.00;;
33022;SDS011;19390;51.460;5.710;2023-03-30T00:27:50;6.30;;;2.47;;
33022;SDS011;19390;51.460;5.710;2023-03-30T00:30:16;7.57;;;1.98;;
33022;SDS011;19390;51.460;5.710;2023-03-30T00:32:43;5.40;;;1.98;;
33022;SDS011;19390;51.460;5.710;2023-03-30T00:35:10;6.00;;;2.03;;
33022;SDS011;19390;51.460;5.710;2023-03-30T00:37:37;7.32;;;1.90;;
33022;SDS011;19390;51.460;5.710;2023-03-30T00:40:04;9.43;;;2.50;;
33022;SDS011;19390;51.460;5.710;2023-03-30T00:42:32;5.28;;;2.40;;
33022;SDS011;19390;51.460;5.710;2023-03-30T00:45:05;7.30;;;2.20;;
33022;SDS011;19390;51.460;5.710;2023-03-30T00:47:32;6.65;;;2.10;;
33022;SDS011;19390;51.460;5.710;2023-03-30T00:50:02;4.28;;;1.92;;
33022;SDS011;19390;51.460;5.710;2023-03-30T00:52:29;6.47;;;1.83;;
33022;SDS011;19390;51.460;5.710;2023-03-30T00:54:57;4.93;;;1.92;;
33022;SDS011;19390;51.460;5.710;2023-03-30T00:57:23;4.60;;;2.10;;
33022;SDS011;19390;51.460;5.710;2023-03-30T00:59:51;6.97;;;2.40;;
33022;SDS011;19390;51.460;5.710;2023-03-30T01:02:20;5.18;;;1.98;;
33022;SDS011;19390;51.460;5.710;2023-03-30T01:04:48;6.40;;;1.85;;
33022;SDS011;19390;51.460;5.710;2023-03-30T01:07:17;7.22;;;1.70;;
33022;SDS011;19390;51.460;5.710;2023-03-30T01:09:43;5.90;;;2.00;;
33022;SDS011;19390;51.460;5.710;2023-03-30T01:12:09;9.68;;;2.17;;
33022;SDS011;19390;51.460;5.710;2023-03-30T01:14:35;6.72;;;1.80;;
33022;SDS011;19390;51.460;5.710;2023-03-30T01:17:09;6.72;;;1.70;;
33022;SDS011;19390;51.460;5.710;2023-03-30T01:20:13;4.57;;;2.20;;
33022;SDS011;19390;51.460;5.710;2023-03-30T01:34:12;9.00;;;2.40;;
33022;SDS011;19390;51.460;5.710;2023-03-30T01:36:45;5.40;;;1.83;;
33022;SDS011;19390;51.460;5.710;2023-03-30T01:42:08;6.45;;;1.98;;
33022;SDS011;19390;51.460;5.710;2023-03-30T01:47:32;5.55;;;1.70;;
33022;SDS011;19390;51.460;5.710;2023-03-30T01:50:07;7.18;;;1.70;;
33022;SDS011;19390;51.460;5.710;2023-03-30T01:52:38;4.15;;;1.95;;
33022;SDS011;19390;51.460;5.710;2023-03-30T01:55:16;6.32;;;1.67;;
33022;SDS011;19390;51.460;5.710;2023-03-30T02:00:15;10.07;;;2.00;;
33022;SDS011;19390;51.460;5.710;2023-03-30T02:02:46;9.15;;;2.33;;
33022;SDS011;19390;51.460;5.710;2023-03-30T02:05:16;3.87;;;1.70;;
33022;SDS011;19390;51.460;5.710;2023-03-30T02:07:45;8.50;;;2.13;;
33022;SDS011;19390;51.460;5.710;2023-03-30T02:10:18;7.63;;;2.30;;
33022;SDS011;19390;51.460;5.710;2023-03-30T02:12:46;5.07;;;2.10;;
33022;SDS011;19390;51.460;5.710;2023-03-30T02:15:13;7.63;;;2.13;;
33022;SDS011;19390;51.460;5.710;2023-03-30T02:17:41;7.57;;;1.80;;
33022;SDS011;19390;51.460;5.710;2023-03-30T02:20:09;3.60;;;1.58;;
33022;SDS011;19390;51.460;5.710;2023-03-30T02:22:36;5.70;;;2.10;;
33022;SDS011;19390;51.460;5.710;2023-03-30T02:25:03;5.55;;;1.98;;
33022;SDS011;19390;51.460;5.710;2023-03-30T02:27:29;11.57;;;2.10;;
33022;SDS011;19390;51.460;5.710;2023-03-30T02:29:56;8.85;;;1.90;;
33022;SDS011;19390;51.460;5.710;2023-03-30T02:32:27;5.90;;;1.77;;
33022;SDS011;19390;51.460;5.710;2023-03-30T02:36:02;7.20;;;2.35;;
33022;SDS011;19390;51.460;5.710;2023-03-30T02:40:57;4.03;;;1.67;;
33022;SDS011;19390;51.460;5.710;2023-03-30T02:59:55;7.35;;;1.92;;
33022;SDS011;19390;51.460;5.710;2023-03-30T03:02:38;3.75;;;1.48;;
33022;SDS011;19390;51.460;5.710;2023-03-30T03:05:07;5.32;;;1.85;;
33022;SDS011;19390;51.460;5.710;2023-03-30T03:07:36;9.15;;;1.95;;
33022;SDS011;19390;51.460;5.710;2023-03-30T03:10:03;4.03;;;1.50;;
33022;SDS011;19390;51.460;5.710;2023-03-30T03:12:30;9.27;;;1.75;;
33022;SDS011;19390;51.460;5.710;2023-03-30T03:14:56;4.18;;;1.65;;
33022;SDS011;19390;51.460;5.710;2023-03-30T03:17:22;4.88;;;1.85;;
33022;SDS011;19390;51.460;5.710;2023-03-30T03:19:48;7.55;;;1.65;;
33022;SDS011;19390;51.460;5.710;2023-03-30T03:22:14;5.97;;;1.90;;
33022;SDS011;19390;51.460;5.710;2023-03-30T03:24:40;6.60;;;1.88;;
33022;SDS011;19390;51.460;5.710;2023-03-30T03:27:06;9.55;;;2.17;;
33022;SDS011;19390;51.460;5.710;2023-03-30T03:29:32;6.60;;;2.33;;
33022;SDS011;19390;51.460;5.710;2023-03-30T03:31:58;8.43;;;2.20;;
33022;SDS011;19390;51.460;5.710;2023-03-30T03:34:24;5.30;;;1.63;;
33022;SDS011;19390;51.460;5.710;2023-03-30T03:36:55;4.80;;;1.85;;
33022;SDS011;19390;51.460;5.710;2023-03-30T03:39:21;7.32;;;2.10;;
33022;SDS011;19390;51.460;5.710;2023-03-30T03:41:46;7.00;;;1.35;;
33022;SDS011;19390;51.460;5.710;2023-03-30T03:44:12;5.03;;;1.73;;
33022;SDS011;19390;51.460;5.710;2023-03-30T03:46:37;7.65;;;1.77;;
33022;SDS011;19390;51.460;5.710;2023-03-30T03:49:03;8.75;;;2.13;;
33022;SDS011;19390;51.460;5.710;2023-03-30T03:51:29;3.45;;;1.27;;
33022;SDS011;19390;51.460;5.710;2023-03-30T03:53:56;4.95;;;1.50;;
33022;SDS011;19390;51.460;5.710;2023-03-30T03:56:22;7.60;;;1.70;;
33022;SDS011;19390;51.460;5.710;2023-03-30T03:58:49;4.78;;;1.50;;
33022;SDS011;19390;51.460;5.710;2023-03-30T04:01:15;8.02;;;1.88;;
33022;SDS011;19390;51.460;5.710;2023-03-30T04:03:40;5.15;;;1.30;;
33022;SDS011;19390;51.460;5.710;2023-03-30T04:06:06;5.55;;;1.50;;
33022;SDS011;19390;51.460;5.710;2023-03-30T04:08:32;9.90;;;1.50;;
33022;SDS011;19390;51.460;5.710;2023-03-30T04:11:09;4.07;;;1.05;;
33022;SDS011;19390;51.460;5.710;2023-03-30T04:13:36;5.43;;;1.40;;
33022;SDS011;19390;51.460;5.710;2023-03-30T04:16:02;5.57;;;1.10;;
33022;SDS011;19390;51.460;5.710;2023-03-30T04:18:29;6.88;;;1.40;;
33022;SDS011;19390;51.460;5.710;2023-03-30T04:20:57;2.97;;;1.38;;
33022;SDS011;19390;51.460;5.710;2023-03-30T04:23:27;7.25;;;1.70;;
33022;SDS011;19390;51.460;5.710;2023-03-30T04:25:56;6.20;;;1.30;;
33022;SDS011;19390;51.460;5.710;2023-03-30T04:28:22;3.33;;;1.33;;
33022;SDS011;19390;51.460;5.710;2023-03-30T04:30:48;5.55;;;1.70;;
33022;SDS011;19390;51.460;5.710;2023-03-30T04:33:14;4.20;;;1.23;;
33022;SDS011;19390;51.460;5.710;2023-03-30T04:35:40;6.18;;;1.30;;
33022;SDS011;19390;51.460;5.710;2023-03-30T04:38:06;6.90;;;1.38;;
33022;SDS011;19390;51.460;5.710;2023-03-30T04:40:32;6.85;;;1.60;;
33022;SDS011;19390;51.460;5.710;2023-03-30T04:42:59;7.72;;;1.92;;
33022;SDS011;19390;51.460;5.710;2023-03-30T04:45:26;6.10;;;1.33;;
33022;SDS011;19390;51.460;5.710;2023-03-30T04:47:53;11.27;;;1.75;;
33022;SDS011;19390;51.460;5.710;2023-03-30T04:50:18;3.67;;;1.60;;
33022;SDS011;19390;51.460;5.710;2023-03-30T04:52:44;5.20;;;1.80;;
33022;SDS011;19390;51.460;5.710;2023-03-30T04:55:10;8.93;;;1.95;;
33022;SDS011;19390;51.460;5.710;2023-03-30T04:57:36;7.70;;;2.05;;
33022;SDS011;19390;51.460;5.710;2023-03-30T05:00:02;8.13;;;1.80;;
33022;SDS011;19390;51.460;5.710;2023-03-30T05:02:31;8.30;;;1.80;;
33022;SDS011;19390;51.460;5.710;2023-03-30T05:04:57;4.93;;;1.67;;
33022;SDS011;19390;51.460;5.710;2023-03-30T05:07:23;4.88;;;1.45;;
33022;SDS011;19390;51.460;5.710;2023-03-30T05:09:48;5.82;;;1.77;;
33022;SDS011;19390;51.460;5.710;2023-03-30T05:12:14;4.13;;;1.27;;
33022;SDS011;19390;51.460;5.710;2023-03-30T05:14:40;2.25;;;1.20;;
33022;SDS011;19390;51.460;5.710;2023-03-30T05:17:06;4.43;;;1.27;;
33022;SDS011;19390;51.460;5.710;2023-03-30T05:19:33;8.38;;;1.50;;
33022;SDS011;19390;51.460;5.710;2023-03-30T05:21:58;2.65;;;1.08;;
33022;SDS011;19390;51.460;5.710;2023-03-30T05:24:25;6.68;;;1.58;;
33022;SDS011;19390;51.460;5.710;2023-03-30T05:26:50;9.15;;;1.67;;
33022;SDS011;19390;51.460;5.710;2023-03-30T05:29:16;6.57;;;1.23;;
33022;SDS011;19390;51.460;5.710;2023-03-30T05:31:42;4.93;;;1.52;;
33022;SDS011;19390;51.460;5.710;2023-03-30T05:34:07;7.63;;;1.40;;
33022;SDS011;19390;51.460;5.710;2023-03-30T05:36:33;6.85;;;1.83;;
33022;SDS011;19390;51.460;5.710;2023-03-30T05:38:59;10.90;;;3.22;;
33022;SDS011;19390;51.460;5.710;2023-03-30T05:41:25;5.25;;;1.38;;
33022;SDS011;19390;51.460;5.710;2023-03-30T05:43:52;7.53;;;1.40;;
33022;SDS011;19390;51.460;5.710;2023-03-30T05:46:18;9.75;;;1.73;;
33022;SDS011;19390;51.460;5.710;2023-03-30T05:48:44;6.05;;;1.52;;
33022;SDS011;19390;51.460;5.710;2023-03-30T05:51:09;7.05;;;1.38;;
33022;SDS011;19390;51.460;5.710;2023-03-30T05:53:35;5.90;;;1.27;;
33022;SDS011;19390;51.460;5.710;2023-03-30T05:56:01;6.32;;;1.50;;
33022;SDS011;19390;51.460;5.710;2023-03-30T05:58:27;6.25;;;1.55;;
33022;SDS011;19390;51.460;5.710;2023-03-30T06:00:56;7.65;;;1.85;;
33022;SDS011;19390;51.460;5.710;2023-03-30T06:03:22;5.10;;;1.42;;
33022;SDS011;19390;51.460;5.710;2023-03-30T06:05:48;6.40;;;1.95;;
33022;SDS011;19390;51.460;5.710;2023-03-30T06:08:13;7.07;;;1.50;;
33022;SDS011;19390;51.460;5.710;2023-03-30T06:10:39;9.10;;;2.00;;
33022;SDS011;19390;51.460;5.710;2023-03-30T06:13:05;6.40;;;2.03;;
33022;SDS011;19390;51.460;5.710;2023-03-30T06:15:31;8.43;;;2.72;;
33022;SDS011;19390;51.460;5.710;2023-03-30T06:17:56;10.40;;;2.38;;
33022;SDS011;19390;51.460;5.710;2023-03-30T06:20:23;7.05;;;2.72;;
33022;SDS011;19390;51.460;5.710;2023-03-30T06:22:50;7.53;;;3.45;;
33022;SDS011;19390;51.460;5.710;2023-03-30T06:25:16;7.60;;;3.80;;
33022;SDS011;19390;51.460;5.710;2023-03-30T06:27:47;12.60;;;3.70;;
33022;SDS011;19390;51.460;5.710;2023-03-30T06:30:13;11.70;;;3.97;;
33022;SDS011;19390;51.460;5.710;2023-03-30T06:32:39;8.93;;;3.08;;
33022;SDS011;19390;51.460;5.710;2023-03-30T06:35:05;11.88;;;3.80;;
33022;SDS011;19390;51.460;5.710;2023-03-30T06:37:31;8.68;;;3.60;;
33022;SDS011;19390;51.460;5.710;2023-03-30T06:39:58;8.13;;;4.68;;
33022;SDS011;19390;51.460;5.710;2023-03-30T06:42:26;9.10;;;5.13;;
33022;SDS011;19390;51.460;5.710;2023-03-30T06:44:52;11.70;;;5.53;;
33022;SDS011;19390;51.460;5.710;2023-03-30T06:47:18;10.02;;;5.70;;
33022;SDS011;19390;51.460;5.710;2023-03-30T06:49:44;12.70;;;4.97;;
33022;SDS011;19390;51.460;5.710;2023-03-30T06:52:09;11.65;;;5.18;;
33022;SDS011;19390;51.460;5.710;2023-03-30T06:54:37;9.25;;;4.80;;
33022;SDS011;19390;51.460;5.710;2023-03-30T06:57:03;11.48;;;4.63;;
33022;SDS011;19390;51.460;5.710;2023-03-30T06:59:28;7.07;;;4.40;;
33022;SDS011;19390;51.460;5.710;2023-03-30T07:01:54;11.25;;;4.05;;
33022;SDS011;19390;51.460;5.710;2023-03-30T07:04:20;9.07;;;4.18;;
33022;SDS011;19390;51.460;5.710;2023-03-30T07:06:46;6.10;;;3.10;;
33022;SDS011;19390;51.460;5.710;2023-03-30T07:09:11;5.78;;;2.50;;
33022;SDS011;19390;51.460;5.710;2023-03-30T07:11:37;7.38;;;2.53;;
33022;SDS011;19390;51.460;5.710;2023-03-30T07:14:03;6.57;;;2.60;;
33022;SDS011;19390;51.460;5.710;2023-03-30T07:16:29;11.40;;;2.85;;
33022;SDS011;19390;51.460;5.710;2023-03-30T07:18:54;6.72;;;3.15;;
33022;SDS011;19390;51.460;5.710;2023-03-30T07:21:20;5.57;;;2.28;;
33022;SDS011;19390;51.460;5.710;2023-03-30T07:23:46;7.07;;;2.13;;
33022;SDS011;19390;51.460;5.710;2023-03-30T07:26:12;7.55;;;1.95;;
33022;SDS011;19390;51.460;5.710;2023-03-30T07:28:37;5.47;;;1.90;;
33022;SDS011;19390;51.460;5.710;2023-03-30T07:31:04;8.65;;;2.15;;
33022;SDS011;19390;51.460;5.710;2023-03-30T07:33:31;8.05;;;2.30;;
33022;SDS011;19390;51.460;5.710;2023-03-30T07:35:57;7.18;;;2.10;;
33022;SDS011;19390;51.460;5.710;2023-03-30T07:38:23;6.80;;;2.45;;
33022;SDS011;19390;51.460;5.710;2023-03-30T07:40:48;6.13;;;2.13;;
33022;SDS011;19390;51.460;5.710;2023-03-30T07:43:14;7.40;;;2.47;;
33022;SDS011;19390;51.460;5.710;2023-03-30T07:45:40;6.75;;;2.08;;
33022;SDS011;19390;51.460;5.710;2023-03-30T07:48:05;6.38;;;2.03;;
33022;SDS011;19390;51.460;5.710;2023-03-30T07:50:31;8.88;;;2.22;;
33022;SDS011;19390;51.460;5.710;2023-03-30T07:52:57;7.85;;;2.00;;
33022;SDS011;19390;51.460;5.710;2023-03-30T07:55:22;7.90;;;1.90;;
33022;SDS011;19390;51.460;5.710;2023-03-30T07:57:48;9.77;;;2.50;;
33022;SDS011;19390;51.460;5.710;2023-03-30T08:00:14;12.82;;;2.38;;
33022;SDS011;19390;51.460;5.710;2023-03-30T08:02:40;10.07;;;2.00;;
33022;SDS011;19390;51.460;5.710;2023-03-30T08:05:06;10.00;;;2.13;;
33022;SDS011;19390;51.460;5.710;2023-03-30T08:07:32;10.55;;;2.33;;
33022;SDS011;19390;51.460;5.710;2023-03-30T08:09:59;10.55;;;2.15;;
33022;SDS011;19390;51.460;5.710;2023-03-30T08:12:24;9.68;;;2.00;;
33022;SDS011;19390;51.460;5.710;2023-03-30T08:14:51;10.45;;;2.13;;
33022;SDS011;19390;51.460;5.710;2023-03-30T08:17:17;9.35;;;2.25;;
33022;SDS011;19390;51.460;5.710;2023-03-30T08:19:43;12.23;;;2.20;;
33022;SDS011;19390;51.460;5.710;2023-03-30T08:22:09;11.15;;;2.17;;
33022;SDS011;19390;51.460;5.710;2023-03-30T08:24:35;8.52;;;2.28;;
33022;SDS011;19390;51.460;5.710;2023-03-30T08:27:01;8.10;;;2.15;;
33022;SDS011;19390;51.460;5.710;2023-03-30T08:29:27;8.45;;;2.05;;
33022;SDS011;19390;51.460;5.710;2023-03-30T08:31:55;9.18;;;1.92;;
33022;SDS011;19390;51.460;5.710;2023-03-30T08:34:21;12.52;;;2.67;;
33022;SDS011;19390;51.460;5.710;2023-03-30T08:36:47;9.80;;;2.08;;
33022;SDS011;19390;51.460;5.710;2023-03-30T08:39:13;9.30;;;1.90;;
33022;SDS011;19390;51.460;5.710;2023-03-30T08:44:30;16.40;;;3.17;;
33022;SDS011;19390;51.460;5.710;2023-03-30T08:47:01;14.35;;;2.80;;
33022;SDS011;19390;51.460;5.710;2023-03-30T08:49:31;12.20;;;2.15;;
33022;SDS011;19390;51.460;5.710;2023-03-30T08:54:29;10.75;;;1.90;;
33022;SDS011;19390;51.460;5.710;2023-03-30T08:57:11;9.35;;;2.20;;
33022;SDS011;19390;51.460;5.710;2023-03-30T09:00:11;12.35;;;2.45;;
33022;SDS011;19390;51.460;5.710;2023-03-30T09:02:57;10.13;;;1.95;;
33022;SDS011;19390;51.460;5.710;2023-03-30T09:05:44;14.60;;;2.92;;
33022;SDS011;19390;51.460;5.710;2023-03-30T09:08:25;12.68;;;2.55;;
33022;SDS011;19390;51.460;5.710;2023-03-30T09:10:57;12.43;;;2.30;;
33022;SDS011;19390;51.460;5.710;2023-03-30T09:13:25;12.23;;;2.05;;
33022;SDS011;19390;51.460;5.710;2023-03-30T09:18:43;16.80;;;2.67;;
33022;SDS011;19390;51.460;5.710;2023-03-30T09:21:15;15.05;;;2.65;;
33022;SDS011;19390;51.460;5.710;2023-03-30T09:23:42;11.02;;;2.38;;
33022;SDS011;19390;51.460;5.710;2023-03-30T09:28:48;11.20;;;2.22;;
33022;SDS011;19390;51.460;5.710;2023-03-30T09:31:27;12.68;;;2.22;;
33022;SDS011;19390;51.460;5.710;2023-03-30T09:37:12;11.18;;;2.33;;
33022;SDS011;19390;51.460;5.710;2023-03-30T09:39:43;16.33;;;2.40;;
33022;SDS011;19390;51.460;5.710;2023-03-30T09:45:00;15.10;;;2.65;;
33022;SDS011;19390;51.460;5.710;2023-03-30T09:47:49;14.52;;;2.45;;
33022;SDS011;19390;51.460;5.710;2023-03-30T09:50:15;18.77;;;2.75;;
33022;SDS011;19390;51.460;5.710;2023-03-30T09:53:01;17.13;;;3.05;;
33022;SDS011;19390;51.460;5.710;2023-03-30T09:55:34;16.48;;;3.35;;
33022;SDS011;19390;51.460;5.710;2023-03-30T10:00:45;10.75;;;2.63;;
33022;SDS011;19390;51.460;5.710;2023-03-30T10:03:18;9.70;;;2.45;;
33022;SDS011;19390;51.460;5.710;2023-03-30T10:05:46;16.10;;;3.17;;
33022;SDS011;19390;51.460;5.710;2023-03-30T10:10:55;15.98;;;3.33;;
33022;SDS011;19390;51.460;5.710;2023-03-30T10:13:26;18.83;;;3.42;;
33022;SDS011;19390;51.460;5.710;2023-03-30T10:16:02;18.73;;;2.88;;
33022;SDS011;19390;51.460;5.710;2023-03-30T10:18:33;20.75;;;3.75;;
33022;SDS011;19390;51.460;5.710;2023-03-30T10:23:39;20.70;;;4.05;;
33022;SDS011;19390;51.460;5.710;2023-03-30T10:26:15;18.25;;;3.35;;
33022;SDS011;19390;51.460;5.710;2023-03-30T10:28:51;11.63;;;2.58;;
33022;SDS011;19390;51.460;5.710;2023-03-30T10:31:22;15.85;;;3.15;;
33022;SDS011;19390;51.460;5.710;2023-03-30T10:33:49;15.27;;;2.80;;
33022;SDS011;19390;51.460;5.710;2023-03-30T10:36:18;12.95;;;2.95;;
33022;SDS011;19390;51.460;5.710;2023-03-30T10:38:45;14.02;;;3.00;;
33022;SDS011;19390;51.460;5.710;2023-03-30T10:41:15;18.65;;;3.33;;
33022;SDS011;19390;51.460;5.710;2023-03-30T10:43:46;14.85;;;3.10;;
33022;SDS011;19390;51.460;5.710;2023-03-30T10:46:14;13.15;;;2.55;;
33022;SDS011;19390;51.460;5.710;2023-03-30T10:49:08;13.82;;;3.05;;
33022;SDS011;19390;51.460;5.710;2023-03-30T10:57:18;13.23;;;3.25;;
33022;SDS011;19390;51.460;5.710;2023-03-30T10:59:57;14.65;;;3.20;;
33022;SDS011;19390;51.460;5.710;2023-03-30T11:05:30;16.42;;;3.42;;
33022;SDS011;19390;51.460;5.710;2023-03-30T11:08:04;14.35;;;2.78;;
33022;SDS011;19390;51.460;5.710;2023-03-30T11:10:32;16.33;;;3.17;;
33022;SDS011;19390;51.460;5.710;2023-03-30T11:15:44;15.90;;;2.67;;
33022;SDS011;19390;51.460;5.710;2023-03-30T11:21:08;15.80;;;2.95;;
33022;SDS011;19390;51.460;5.710;2023-03-30T11:26:09;14.80;;;3.65;;
33022;SDS011;19390;51.460;5.710;2023-03-30T11:35:09;13.15;;;2.70;;
33022;SDS011;19390;51.460;5.710;2023-03-30T11:37:41;16.77;;;2.72;;
33022;SDS011;19390;51.460;5.710;2023-03-30T11:42:48;12.60;;;2.50;;
33022;SDS011;19390;51.460;5.710;2023-03-30T11:48:02;8.57;;;2.15;;
33022;SDS011;19390;51.460;5.710;2023-03-30T11:56:06;7.45;;;1.75;;
33022;SDS011;19390;51.460;5.710;2023-03-30T11:58:35;8.77;;;2.08;;
33022;SDS011;19390;51.460;5.710;2023-03-30T12:03:46;9.77;;;2.13;;
33022;SDS011;19390;51.460;5.710;2023-03-30T12:06:20;6.13;;;2.10;;
33022;SDS011;19390;51.460;5.710;2023-03-30T12:14:38;9.88;;;2.05;;
33022;SDS011;19390;51.460;5.710;2023-03-30T12:28:06;9.43;;;1.90;;
33022;SDS011;19390;51.460;5.710;2023-03-30T12:30:43;8.52;;;2.00;;
33022;SDS011;19390;51.460;5.710;2023-03-30T12:33:26;10.88;;;2.40;;
33022;SDS011;19390;51.460;5.710;2023-03-30T12:36:22;11.25;;;2.40;;
33022;SDS011;19390;51.460;5.710;2023-03-30T12:38:53;10.82;;;2.47;;
33022;SDS011;19390;51.460;5.710;2023-03-30T12:41:26;9.23;;;2.28;;
33022;SDS011;19390;51.460;5.710;2023-03-30T12:52:13;8.23;;;2.17;;
33022;SDS011;19390;51.460;5.710;2023-03-30T12:57:31;12.30;;;2.63;;
33022;SDS011;19390;51.460;5.710;2023-03-30T13:05:52;12.38;;;2.67;;
33022;SDS011;19390;51.460;5.710;2023-03-30T13:14:24;12.77;;;2.63;;
33022;SDS011;19390;51.460;5.710;2023-03-30T13:24:53;19.73;;;3.67;;
33022;SDS011;19390;51.460;5.710;2023-03-30T13:27:25;11.77;;;2.45;;
33022;SDS011;19390;51.460;5.710;2023-03-30T13:38:22;11.77;;;2.45;;
33022;SDS011;19390;51.460;5.710;2023-03-30T13:46:44;17.90;;;3.08;;
33022;SDS011;19390;51.460;5.710;2023-03-30T13:51:48;14.32;;;2.85;;
33022;SDS011;19390;51.460;5.710;2023-03-30T13:54:20;13.90;;;2.75;;
33022;SDS011;19390;51.460;5.710;2023-03-30T13:57:13;9.43;;;2.50;;
33022;SDS011;19390;51.460;5.710;2023-03-30T13:59:46;12.25;;;2.40;;
33022;SDS011;19390;51.460;5.710;2023-03-30T14:02:16;14.75;;;2.85;;
33022;SDS011;19390;51.460;5.710;2023-03-30T14:04:45;14.88;;;2.55;;
33022;SDS011;19390;51.460;5.710;2023-03-30T14:07:17;14.10;;;2.65;;
33022;SDS011;19390;51.460;5.710;2023-03-30T14:10:10;13.13;;;2.75;;
33022;SDS011;19390;51.460;5.710;2023-03-30T14:12:38;22.63;;;3.00;;
33022;SDS011;19390;51.460;5.710;2023-03-30T14:15:38;13.93;;;2.63;;
33022;SDS011;19390;51.460;5.710;2023-03-30T14:17:59;12.75;;;3.03;;
33022;SDS011;19390;51.460;5.710;2023-03-30T14:20:37;17.10;;;3.33;;
33022;SDS011;19390;51.460;5.710;2023-03-30T14:26:01;10.40;;;2.10;;
33022;SDS011;19390;51.460;5.710;2023-03-30T14:28:29;7.57;;;1.63;;
33022;SDS011;19390;51.460;5.710;2023-03-30T14:31:00;6.93;;;1.15;;
33022;SDS011;19390;51.460;5.710;2023-03-30T14:33:28;6.72;;;1.02;;
33022;SDS011;19390;51.460;5.710;2023-03-30T14:35:57;2.55;;;0.77;;
33022;SDS011;19390;51.460;5.710;2023-03-30T14:38:31;8.38;;;1.30;;
33022;SDS011;19390;51.460;5.710;2023-03-30T14:41:07;9.40;;;2.03;;
33022;SDS011;19390;51.460;5.710;2023-03-30T14:43:38;10.55;;;2.05;;
33022;SDS011;19390;51.460;5.710;2023-03-30T14:46:06;5.75;;;1.42;;
33022;SDS011;19390;51.460;5.710;2023-03-30T14:48:35;6.60;;;1.98;;
33022;SDS011;19390;51.460;5.710;2023-03-30T14:51:05;10.40;;;2.08;;
33022;SDS011;19390;51.460;5.710;2023-03-30T14:53:43;10.18;;;1.80;;
33022;SDS011;19390;51.460;5.710;2023-03-30T14:56:09;7.88;;;1.85;;
33022;SDS011;19390;51.460;5.710;2023-03-30T14:58:35;14.52;;;3.00;;
33022;SDS011;19390;51.460;5.710;2023-03-30T15:01:02;9.75;;;1.77;;
33022;SDS011;19390;51.460;5.710;2023-03-30T15:03:33;10.35;;;2.33;;
33022;SDS011;19390;51.460;5.710;2023-03-30T15:06:02;15.70;;;2.85;;
33022;SDS011;19390;51.460;5.710;2023-03-30T15:08:30;17.67;;;7.47;;
33022;SDS011;19390;51.460;5.710;2023-03-30T15:11:02;16.73;;;5.95;;
33022;SDS011;19390;51.460;5.710;2023-03-30T15:13:37;13.70;;;2.40;;
33022;SDS011;19390;51.460;5.710;2023-03-30T15:16:07;10.25;;;1.75;;
33022;SDS011;19390;51.460;5.710;2023-03-30T15:18:39;8.07;;;2.03;;
33022;SDS011;19390;51.460;5.710;2023-03-30T15:21:05;11.70;;;2.20;;
33022;SDS011;19390;51.460;5.710;2023-03-30T15:23:34;9.52;;;2.00;;
33022;SDS011;19390;51.460;5.710;2023-03-30T15:26:04;8.10;;;1.73;;
33022;SDS011;19390;51.460;5.710;2023-03-30T15:28:32;7.40;;;2.05;;
33022;SDS011;19390;51.460;5.710;2023-03-30T15:31:02;11.63;;;2.50;;
33022;SDS011;19390;51.460;5.710;2023-03-30T15:33:35;10.60;;;2.72;;
33022;SDS011;19390;51.460;5.710;2023-03-30T15:36:10;14.85;;;2.60;;
33022;SDS011;19390;51.460;5.710;2023-03-30T15:38:41;12.38;;;2.03;;
33022;SDS011;19390;51.460;5.710;2023-03-30T15:41:14;15.05;;;2.42;;
33022;SDS011;19390;51.460;5.710;2023-03-30T15:46:36;16.35;;;2.47;;
33022;SDS011;19390;51.460;5.710;2023-03-30T15:49:02;10.32;;;2.03;;
33022;SDS011;19390;51.460;5.710;2023-03-30T15:51:35;7.78;;;2.28;;
33022;SDS011;19390;51.460;5.710;2023-03-30T15:56:37;10.45;;;2.30;;
33022;SDS011;19390;51.460;5.710;2023-03-30T15:59:24;10.75;;;2.13;;
33022;SDS011;19390;51.460;5.710;2023-03-30T16:01:56;13.20;;;2.53;;
33022;SDS011;19390;51.460;5.710;2023-03-30T16:04:27;9.60;;;2.10;;
33022;SDS011;19390;51.460;5.710;2023-03-30T16:06:55;9.38;;;1.77;;
33022;SDS011;19390;51.460;5.710;2023-03-30T16:09:20;9.93;;;1.67;;
33022;SDS011;19390;51.460;5.710;2023-03-30T16:11:47;10.10;;;2.20;;
33022;SDS011;19390;51.460;5.710;2023-03-30T16:14:14;12.80;;;2.35;;
33022;SDS011;19390;51.460;5.710;2023-03-30T16:16:42;12.95;;;2.75;;
33022;SDS011;19390;51.460;5.710;2023-03-30T16:19:12;12.27;;;2.30;;
33022;SDS011;19390;51.460;5.710;2023-03-30T16:21:41;14.90;;;2.95;;
33022;SDS011;19390;51.460;5.710;2023-03-30T16:24:06;10.30;;;2.53;;
33022;SDS011;19390;51.460;5.710;2023-03-30T16:26:32;10.65;;;2.40;;
33022;SDS011;19390;51.460;5.710;2023-03-30T16:28:58;12.80;;;2.80;;
33022;SDS011;19390;51.460;5.710;2023-03-30T16:31:24;14.32;;;2.08;;
33022;SDS011;19390;51.460;5.710;2023-03-30T16:33:50;11.95;;;2.25;;
33022;SDS011;19390;51.460;5.710;2023-03-30T16:36:17;11.27;;;2.72;;
33022;SDS011;19390;51.460;5.710;2023-03-30T16:38:45;14.98;;;2.60;;
33022;SDS011;19390;51.460;5.710;2023-03-30T16:41:13;11.68;;;2.17;;
33022;SDS011;19390;51.460;5.710;2023-03-30T16:43:43;10.93;;;2.40;;
33022;SDS011;19390;51.460;5.710;2023-03-30T16:46:11;7.43;;;1.90;;
33022;SDS011;19390;51.460;5.710;2023-03-30T16:48:38;10.10;;;2.10;;
33022;SDS011;19390;51.460;5.710;2023-03-30T16:51:03;7.15;;;1.70;;
33022;SDS011;19390;51.460;5.710;2023-03-30T16:53:31;8.52;;;1.40;;
33022;SDS011;19390;51.460;5.710;2023-03-30T16:55:57;6.82;;;1.52;;
33022;SDS011;19390;51.460;5.710;2023-03-30T16:58:23;8.18;;;1.70;;
33022;SDS011;19390;51.460;5.710;2023-03-30T17:00:50;9.18;;;1.73;;
33022;SDS011;19390;51.460;5.710;2023-03-30T17:03:17;9.00;;;2.40;;
33022;SDS011;19390;51.460;5.710;2023-03-30T17:05:44;17.63;;;6.38;;
33022;SDS011;19390;51.460;5.710;2023-03-30T17:08:19;9.70;;;3.42;;
33022;SDS011;19390;51.460;5.710;2023-03-30T17:10:47;12.80;;;3.00;;
33022;SDS011;19390;51.460;5.710;2023-03-30T17:13:14;10.32;;;1.58;;
33022;SDS011;19390;51.460;5.710;2023-03-30T17:15:40;10.45;;;2.53;;
33022;SDS011;19390;51.460;5.710;2023-03-30T17:18:08;7.38;;;1.75;;
33022;SDS011;19390;51.460;5.710;2023-03-30T17:20:38;15.77;;;2.80;;
33022;SDS011;19390;51.460;5.710;2023-03-30T17:23:12;10.23;;;2.17;;
33022;SDS011;19390;51.460;5.710;2023-03-30T17:25:40;10.98;;;2.90;;
33022;SDS011;19390;51.460;5.710;2023-03-30T17:28:06;10.20;;;2.13;;
33022;SDS011;19390;51.460;5.710;2023-03-30T17:30:35;13.52;;;2.63;;
33022;SDS011;19390;51.460;5.710;2023-03-30T17:33:04;13.68;;;2.95;;
33022;SDS011;19390;51.460;5.710;2023-03-30T17:35:34;11.07;;;2.35;;
33022;SDS011;19390;51.460;5.710;2023-03-30T17:38:02;10.13;;;2.47;;
33022;SDS011;19390;51.460;5.710;2023-03-30T17:40:28;11.38;;;2.60;;
33022;SDS011;19390;51.460;5.710;2023-03-30T17:42:55;12.18;;;2.97;;
33022;SDS011;19390;51.460;5.710;2023-03-30T17:45:23;16.15;;;2.95;;
33022;SDS011;19390;51.460;5.710;2023-03-30T17:47:50;12.98;;;2.58;;